Time;durP1;ratioP1;P1;durP2;ratioP2;P2;SDS_P1;SDS_P2;PMS_P1;PMS_P2;Temp;Humidity;BMP_temperature;BMP_pressure;BME280_temperature;BME280_humidity;BME280_pressure;Samples;Min_cycle;Max_cycle;Signal;HPM_P1;HPM_P2
2023/08/07 00:02:28;;;;;;;9.75;3.45;;;;;;;12.88;100.00;101240.56;5318171;28;20027;-67
2023/08/07 00:04:59;;;;;;;15.77;3.83;;;;;;;12.92;100.00;101239.34;5319443;28;20028;-67
2023/08/07 00:07:30;;;;;;;15.75;3.60;;;;;;;12.90;100.00;101241.28;5321250;28;20023;-67
2023/08/07 00:10:03;;;;;;;11.77;3.97;;;;;;;12.88;100.00;101233.38;5321066;28;20103;-67
2023/08/07 00:12:34;;;;;;;14.75;3.83;;;;;;;12.83;100.00;101224.88;5314891;28;20573;-67
2023/08/07 00:15:06;;;;;;;15.30;3.55;;;;;;;12.88;100.00;101229.84;5309176;28;20107;-67
2023/08/07 00:17:37;;;;;;;12.73;3.40;;;;;;;12.86;100.00;101227.28;5314990;28;20028;-67
2023/08/07 00:20:09;;;;;;;12.80;3.10;;;;;;;12.86;100.00;101246.03;5308396;28;20024;-67
2023/08/07 00:22:40;;;;;;;12.43;3.67;;;;;;;12.87;100.00;101250.44;5310787;28;20147;-66
2023/08/07 00:25:12;;;;;;;15.25;3.38;;;;;;;12.88;100.00;101249.44;5322893;27;20127;-67
2023/08/07 00:27:43;;;;;;;11.50;3.88;;;;;;;12.90;100.00;101252.00;5313179;28;20024;-67
2023/08/07 00:30:14;;;;;;;17.80;4.07;;;;;;;12.99;100.00;101261.13;5315455;28;20431;-67
2023/08/07 00:32:46;;;;;;;16.75;4.32;;;;;;;12.95;100.00;101273.91;5309522;28;20032;-67
2023/08/07 00:35:17;;;;;;;14.85;4.15;;;;;;;12.90;100.00;101273.41;5315243;28;20123;-67
2023/08/07 00:37:48;;;;;;;13.57;3.72;;;;;;;12.89;100.00;101266.38;5315094;28;20028;-67
2023/08/07 00:40:20;;;;;;;13.13;3.85;;;;;;;12.87;100.00;101257.63;5315986;28;20358;-68
2023/08/07 00:42:51;;;;;;;9.30;2.80;;;;;;;12.84;100.00;101255.16;5317481;28;20467;-67
2023/08/07 00:45:23;;;;;;;9.60;2.92;;;;;;;12.78;100.00;101255.66;5320087;28;20047;-67
2023/08/07 00:47:54;;;;;;;11.48;3.15;;;;;;;12.77;100.00;101259.31;5312256;28;20036;-67
2023/08/07 00:50:26;;;;;;;9.20;2.88;;;;;;;12.72;100.00;101273.91;5318692;28;20448;-67
2023/08/07 00:52:58;;;;;;;8.95;3.10;;;;;;;12.73;100.00;101272.06;5307475;28;20028;-67
2023/08/07 00:55:30;;;;;;;11.23;2.80;;;;;;;12.69;100.00;101271.47;5317077;28;20020;-67
2023/08/07 00:58:01;;;;;;;9.13;2.60;;;;;;;12.70;100.00;101280.38;5315834;28;20289;-67
2023/08/07 01:00:32;;;;;;;14.68;3.10;;;;;;;12.70;100.00;101270.50;5307559;28;20059;-67
2023/08/07 01:03:07;;;;;;;13.95;3.55;;;;;;;12.69;100.00;101267.94;5312627;28;20028;-67
2023/08/07 01:05:38;;;;;;;15.23;4.10;;;;;;;12.72;100.00;101263.19;5312827;28;20454;-67
2023/08/07 01:08:10;;;;;;;11.77;3.83;;;;;;;12.65;100.00;101270.00;5317448;28;20019;-67
2023/08/07 01:10:44;;;;;;;13.88;3.13;;;;;;;12.64;100.00;101268.31;5309059;28;20040;-67
2023/08/07 01:13:23;;;;;;;;;;;;;;;12.81;100.00;101268.78;5315434;28;20431;-67
2023/08/07 01:16:13;;;;;;;12.63;3.40;;;;;;;12.66;100.00;101265.53;5320370;28;19922;-67
2023/08/07 01:18:46;;;;;;;13.10;4.10;;;;;;;12.68;100.00;101275.13;5317104;28;20039;-67
2023/08/07 01:21:21;;;;;;;13.27;4.40;;;;;;;12.73;100.00;101275.63;5311421;28;20045;-67
2023/08/07 01:23:52;;;;;;;12.85;4.22;;;;;;;12.69;100.00;101273.28;5317863;28;20042;-69
2023/08/07 01:26:24;;;;;;;13.68;3.53;;;;;;;12.68;100.00;101279.63;5318513;28;20039;-67
2023/08/07 01:29:11;;;;;;;11.15;3.83;;;;;;;12.76;100.00;101279.88;5318788;28;20450;-67
2023/08/07 01:31:45;;;;;;;15.90;4.38;;;;;;;12.67;100.00;101281.44;5319676;28;20035;-67
2023/08/07 01:34:19;;;;;;;12.30;4.05;;;;;;;12.67;100.00;101292.16;5314146;28;20015;-67
2023/08/07 01:36:53;;;;;;;12.68;3.85;;;;;;;12.71;100.00;101298.13;5312214;28;20019;-67
2023/08/07 01:39:25;;;;;;;9.18;3.38;;;;;;;12.77;100.00;101294.09;5319940;28;20027;-67
2023/08/07 01:42:00;;;;;;;13.38;3.63;;;;;;;12.77;100.00;101288.75;5317693;28;20385;-67
2023/08/07 01:44:31;;;;;;;14.25;3.80;;;;;;;12.72;100.00;101284.63;5315032;28;20549;-67
2023/08/07 01:47:03;;;;;;;14.55;3.63;;;;;;;12.68;100.00;101296.53;5314247;28;20047;-67
2023/08/07 01:49:34;;;;;;;13.55;3.20;;;;;;;12.72;100.00;101291.81;5318945;28;20023;-67
2023/08/07 01:52:07;;;;;;;13.45;3.10;;;;;;;12.66;100.00;101289.63;5321283;28;20381;-66
2023/08/07 01:54:38;;;;;;;14.15;3.55;;;;;;;12.55;100.00;101285.94;5319847;28;20024;-66
2023/08/07 01:57:10;;;;;;;11.15;3.60;;;;;;;12.49;100.00;101289.09;5319958;28;20160;-67
2023/08/07 01:59:42;;;;;;;14.88;3.20;;;;;;;12.48;100.00;101305.25;5326504;27;20028;-67
2023/08/07 02:02:13;;;;;;;12.77;3.05;;;;;;;12.44;100.00;101301.13;5310917;28;20027;-67
2023/08/07 02:04:44;;;;;;;11.40;3.10;;;;;;;12.43;100.00;101302.13;5315953;28;20492;-67
2023/08/07 02:07:16;;;;;;;9.65;3.13;;;;;;;12.42;100.00;101301.25;5317698;27;20374;-67
2023/08/07 02:09:47;;;;;;;10.88;3.67;;;;;;;12.42;100.00;101301.25;5304716;28;20233;-67
2023/08/07 02:12:18;;;;;;;13.30;4.22;;;;;;;12.45;100.00;101300.16;5316124;28;20031;-67
2023/08/07 02:14:50;;;;;;;15.13;3.55;;;;;;;12.43;100.00;101305.63;5311888;28;20027;-67
2023/08/07 02:17:24;;;;;;;8.90;3.67;;;;;;;12.39;100.00;101301.50;5314448;28;20038;-67
2023/08/07 02:19:56;;;;;;;11.38;3.38;;;;;;;12.38;100.00;101304.28;5313366;28;20068;-67
2023/08/07 02:22:27;;;;;;;14.35;3.10;;;;;;;12.38;100.00;101306.94;5312501;28;20039;-67
2023/08/07 02:24:59;;;;;;;12.25;3.40;;;;;;;12.38;100.00;101304.28;5313863;28;20024;-67
2023/08/07 02:27:30;;;;;;;11.73;3.65;;;;;;;12.39;100.00;101301.50;5308349;28;20051;-67
2023/08/07 02:30:03;;;;;;;11.38;3.30;;;;;;;12.40;100.00;101303.19;5314428;28;20034;-67
2023/08/07 02:32:34;;;;;;;11.70;3.63;;;;;;;12.40;100.00;101300.50;5315063;28;20477;-67
2023/08/07 02:35:06;;;;;;;13.18;3.60;;;;;;;12.40;100.00;101299.66;5317248;28;20019;-66
2023/08/07 02:37:38;;;;;;;11.38;3.90;;;;;;;12.43;100.00;101299.44;5316241;28;20031;-67
2023/08/07 02:40:10;;;;;;;9.90;3.20;;;;;;;12.48;100.00;101291.88;5308648;28;20035;-67
2023/08/07 02:42:42;;;;;;;10.70;3.45;;;;;;;12.53;100.00;101303.09;5309295;28;20402;-67
2023/08/07 02:45:13;;;;;;;9.43;3.70;;;;;;;12.52;100.00;101294.22;5312430;28;20347;-67
2023/08/07 02:47:45;;;;;;;14.13;3.65;;;;;;;12.55;100.00;101299.31;5309693;28;20130;-67
2023/08/07 02:50:16;;;;;;;13.45;3.92;;;;;;;12.54;100.00;101294.06;5304396;28;20020;-67
2023/08/07 02:52:47;;;;;;;14.65;3.70;;;;;;;12.52;100.00;101294.22;5315781;28;20034;-67
2023/08/07 02:55:19;;;;;;;10.48;3.40;;;;;;;12.52;100.00;101293.34;5313461;28;20031;-67
2023/08/07 02:57:50;;;;;;;14.10;4.22;;;;;;;12.58;100.00;101298.25;5315354;28;20122;-66
2023/08/07 03:00:21;;;;;;;10.38;3.60;;;;;;;12.58;100.00;101292.91;5318798;28;20529;-67
2023/08/07 03:02:53;;;;;;;12.68;4.57;;;;;;;12.57;100.00;101296.53;5313967;28;20051;-67
2023/08/07 03:05:24;;;;;;;11.38;3.80;;;;;;;12.59;100.00;101297.25;5315880;28;20056;-67
2023/08/07 03:07:55;;;;;;;9.38;3.63;;;;;;;12.67;100.00;101305.53;5317611;28;20080;-67
2023/08/07 03:10:27;;;;;;;12.85;3.92;;;;;;;12.68;100.00;101309.09;5317533;28;20454;-67
2023/08/07 03:12:58;;;;;;;11.02;3.72;;;;;;;12.71;100.00;101315.06;5309988;28;20034;-66
2023/08/07 03:15:29;;;;;;;9.05;3.38;;;;;;;12.84;100.00;101312.25;5301229;28;20055;-66
2023/08/07 03:18:00;;;;;;;12.82;3.90;;;;;;;12.72;100.00;101302.53;5317512;28;20449;-66
2023/08/07 03:20:32;;;;;;;9.57;3.80;;;;;;;12.76;100.00;101306.66;5318200;28;20019;-66
2023/08/07 03:23:03;;;;;;;14.38;4.07;;;;;;;12.77;100.00;101311.06;5319189;28;20051;-66
2023/08/07 03:25:34;;;;;;;9.63;3.53;;;;;;;12.79;100.00;101305.56;5308952;28;20030;-67
2023/08/07 03:28:06;;;;;;;14.57;4.93;;;;;;;12.78;100.00;101294.00;5314861;28;20027;-67
2023/08/07 03:30:38;;;;;;;12.50;4.10;;;;;;;12.75;100.00;101291.53;5316100;28;20043;-66
2023/08/07 03:33:09;;;;;;;10.88;3.55;;;;;;;12.84;100.00;101287.31;5313970;28;20072;-67
2023/08/07 03:35:40;;;;;;;13.60;4.13;;;;;;;12.79;100.00;101281.44;5318546;28;20024;-66
2023/08/07 03:38:12;;;;;;;13.82;4.57;;;;;;;12.72;100.00;101287.28;5317702;28;20031;-67
2023/08/07 03:40:43;;;;;;;12.63;4.03;;;;;;;12.68;100.00;101288.50;5314849;28;20073;-67
2023/08/07 03:43:14;;;;;;;10.07;3.90;;;;;;;12.69;100.00;101281.31;5316608;28;20028;-67
2023/08/07 03:45:46;;;;;;;15.68;4.32;;;;;;;12.68;100.00;101280.47;5314991;28;20482;-67
2023/08/07 03:48:17;;;;;;;17.77;4.03;;;;;;;12.65;100.00;101275.34;5307102;28;20028;-67
2023/08/07 03:50:48;;;;;;;16.40;4.00;;;;;;;12.60;100.00;101282.91;5316913;28;20035;-67
2023/08/07 03:53:20;;;;;;;15.15;4.38;;;;;;;12.57;100.00;101285.81;5315963;28;20020;-67
2023/08/07 03:55:51;;;;;;;13.88;4.35;;;;;;;12.68;100.00;101285.84;5298802;28;20032;-67
2023/08/07 03:58:23;;;;;;;17.02;3.97;;;;;;;12.59;100.00;101283.88;5302094;28;20032;-67
2023/08/07 04:00:55;;;;;;;14.38;3.60;;;;;;;12.61;100.00;101283.75;5318967;28;20023;-67
2023/08/07 04:03:26;;;;;;;15.70;4.00;;;;;;;12.61;100.00;101284.59;5305653;28;20055;-67
2023/08/07 04:06:00;;;;;;;13.35;4.10;;;;;;;12.60;100.00;101288.28;5304415;28;20591;-67
2023/08/07 04:08:31;;;;;;;12.77;3.67;;;;;;;12.67;100.00;101289.47;5305310;28;20481;-67
2023/08/07 04:11:04;;;;;;;13.05;4.07;;;;;;;12.71;100.00;101299.00;5307634;28;20030;-67
2023/08/07 04:13:36;;;;;;;13.85;3.28;;;;;;;12.71;100.00;101292.75;5315717;28;20032;-67
2023/08/07 04:16:07;;;;;;;13.38;3.38;;;;;;;12.68;100.00;101293.88;5310643;28;20093;-67
2023/08/07 04:18:38;;;;;;;13.43;3.50;;;;;;;12.67;100.00;101297.50;5316742;28;20072;-67
2023/08/07 04:21:09;;;;;;;10.10;3.85;;;;;;;12.68;100.00;101296.53;5319526;28;20085;-67
2023/08/07 04:23:41;;;;;;;12.98;3.95;;;;;;;12.68;100.00;101296.53;5319162;28;20041;-67
2023/08/07 04:26:12;;;;;;;16.58;3.63;;;;;;;12.66;100.00;101295.81;5295453;28;20039;-67
2023/08/07 04:28:43;;;;;;;13.52;3.78;;;;;;;12.65;100.00;101301.28;5319389;28;20708;-67
2023/08/07 04:31:15;;;;;;;16.45;4.20;;;;;;;12.63;100.00;101305.91;5318990;28;20031;-67
2023/08/07 04:33:46;;;;;;;13.40;3.38;;;;;;;12.60;100.00;101301.66;5321154;28;20110;-67
2023/08/07 04:36:17;;;;;;;11.07;3.28;;;;;;;12.63;100.00;101305.91;5321498;28;20149;-67
2023/08/07 04:38:50;;;;;;;10.30;3.63;;;;;;;12.59;100.00;101302.63;5305885;28;20439;-66
2023/08/07 04:41:22;;;;;;;10.25;3.60;;;;;;;12.60;100.00;101307.00;5312561;28;20043;-67
2023/08/07 04:43:53;;;;;;;12.57;3.67;;;;;;;12.61;100.00;101314.06;5320742;28;20028;-67
2023/08/07 04:46:24;;;;;;;11.77;3.75;;;;;;;12.61;100.00;101321.25;5321456;28;20023;-67
2023/08/07 04:48:56;;;;;;;12.88;3.85;;;;;;;12.60;100.00;101312.38;5312787;28;20405;-67
2023/08/07 04:51:28;;;;;;;11.90;3.50;;;;;;;12.64;100.00;101310.31;5310597;28;20027;-67
2023/08/07 04:53:59;;;;;;;11.68;3.10;;;;;;;12.65;100.00;101302.13;5315520;28;20032;-67
2023/08/07 04:56:31;;;;;;;11.40;3.28;;;;;;;12.66;100.00;101305.69;5315349;28;20469;-67
2023/08/07 04:59:02;;;;;;;12.95;3.35;;;;;;;12.77;100.00;101311.06;5320266;28;20038;-68
2023/08/07 05:01:34;;;;;;;10.73;2.70;;;;;;;12.72;100.00;101314.06;5321227;28;20038;-67
2023/08/07 05:04:05;;;;;;;8.68;2.65;;;;;;;12.70;100.00;101309.81;5316905;28;20118;-67
2023/08/07 05:06:37;;;;;;;8.18;2.60;;;;;;;12.73;100.00;101310.44;5312921;28;20428;-67
2023/08/07 05:09:08;;;;;;;6.70;2.45;;;;;;;12.73;100.00;101315.78;5312606;28;20039;-67
2023/08/07 05:11:39;;;;;;;10.35;2.38;;;;;;;12.73;100.00;101318.47;5319784;28;20020;-67
2023/08/07 05:14:11;;;;;;;11.63;3.17;;;;;;;12.76;100.00;101320.03;5320492;28;20038;-68
2023/08/07 05:16:42;;;;;;;10.35;2.50;;;;;;;12.72;100.00;101326.63;5304795;28;20488;-67
2023/08/07 05:19:13;;;;;;;9.45;2.70;;;;;;;12.59;100.00;101326.69;5314820;28;20054;-68
2023/08/07 05:21:49;;;;;;;12.25;3.10;;;;;;;12.62;100.00;101329.16;5320547;28;20106;-67
2023/08/07 05:24:21;;;;;;;8.07;2.60;;;;;;;12.66;100.00;101327.09;5317948;28;20081;-67
2023/08/07 05:26:52;;;;;;;8.38;3.03;;;;;;;12.63;100.00;101333.53;5310241;28;20431;-67
2023/08/07 05:29:23;;;;;;;11.32;2.70;;;;;;;12.65;100.00;101342.28;5318182;28;20035;-67
2023/08/07 05:31:54;;;;;;;9.23;2.72;;;;;;;12.58;100.00;101333.03;5311826;28;20023;-67
2023/08/07 05:34:26;;;;;;;10.90;2.63;;;;;;;12.61;100.00;101331.94;5309183;28;20038;-67
2023/08/07 05:36:57;;;;;;;13.05;3.28;;;;;;;12.62;100.00;101339.88;5314080;28;20062;-67
2023/08/07 05:39:28;;;;;;;9.27;2.80;;;;;;;12.68;100.00;101347.41;5320667;28;20385;-67
2023/08/07 05:42:01;;;;;;;8.98;2.60;;;;;;;12.68;100.00;101344.75;5318711;28;20107;-67
2023/08/07 05:44:32;;;;;;;10.80;3.45;;;;;;;12.69;100.00;101341.06;5311369;28;20427;-67
2023/08/07 05:47:04;;;;;;;13.32;3.50;;;;;;;12.70;100.00;101360.69;5316747;28;20028;-67
2023/08/07 05:49:36;;;;;;;12.10;3.85;;;;;;;12.72;100.00;101366.78;5320486;28;20027;-67
2023/08/07 05:52:07;;;;;;;13.98;3.88;;;;;;;12.76;100.00;101365.56;5320779;28;20080;-67
2023/08/07 05:54:39;;;;;;;11.80;3.70;;;;;;;12.76;100.00;101368.25;5318776;27;20035;-67
2023/08/07 05:57:10;;;;;;;13.48;3.08;;;;;;;12.81;100.00;101375.91;5319444;28;20022;-67
2023/08/07 05:59:41;;;;;;;14.32;3.42;;;;;;;12.81;100.00;101370.53;5306992;28;20024;-67
2023/08/07 06:02:13;;;;;;;11.57;3.15;;;;;;;12.80;100.00;101369.69;5299503;28;20517;-67
2023/08/07 06:04:45;;;;;;;9.63;3.10;;;;;;;12.80;100.00;101363.50;5317887;28;20447;-67
2023/08/07 06:07:16;;;;;;;13.82;3.20;;;;;;;12.78;100.00;101368.13;5315047;28;20120;-67
2023/08/07 06:09:47;;;;;;;13.27;3.13;;;;;;;12.82;100.00;101373.13;5315910;28;20104;-68
2023/08/07 06:12:19;;;;;;;10.18;2.88;;;;;;;12.87;100.00;101368.25;5319615;28;20035;-67
2023/08/07 06:14:50;;;;;;;13.43;3.65;;;;;;;12.89;100.00;101376.19;5319522;28;20106;-67
2023/08/07 06:17:21;;;;;;;10.55;3.30;;;;;;;12.92;100.00;101367.88;5308485;28;20153;-67
2023/08/07 06:19:53;;;;;;;8.77;2.97;;;;;;;12.96;100.00;101372.03;5305885;28;20027;-67
2023/08/07 06:22:24;;;;;;;12.90;3.75;;;;;;;13.04;100.00;101374.09;5318433;28;20275;-67
2023/08/07 06:24:55;;;;;;;10.73;3.38;;;;;;;13.13;100.00;101376.94;5306385;28;20023;-67
2023/08/07 06:27:27;;;;;;;16.45;2.90;;;;;;;13.25;100.00;101374.25;5315097;28;20055;-67
2023/08/07 06:29:59;;;;;;;11.65;2.95;;;;;;;13.32;100.00;101380.84;5317482;28;20182;-68
2023/08/07 06:32:30;;;;;;;9.43;2.60;;;;;;;13.31;100.00;101384.53;5319570;28;20019;-67
2023/08/07 06:35:02;;;;;;;14.57;3.45;;;;;;;13.40;100.00;101394.50;5309146;28;20031;-67
2023/08/07 06:37:34;;;;;;;11.63;2.55;;;;;;;13.42;100.00;101397.91;5305421;28;20171;-67
2023/08/07 06:40:06;;;;;;;11.88;2.67;;;;;;;13.52;100.00;101403.41;5286461;28;20048;-68
2023/08/07 06:42:37;;;;;;;8.38;2.28;;;;;;;13.57;100.00;101403.03;5313618;28;20031;-67
2023/08/07 06:45:09;;;;;;;12.13;2.70;;;;;;;13.59;100.00;101388.50;5301145;28;20030;-67
2023/08/07 06:47:40;;;;;;;7.47;2.00;;;;;;;13.65;100.00;101393.41;5316247;28;20505;-67
2023/08/07 06:50:13;;;;;;;9.70;2.17;;;;;;;13.68;100.00;101400.34;5318941;28;20404;-67
2023/08/07 06:52:44;;;;;;;12.32;2.53;;;;;;;13.69;100.00;101393.97;5321657;27;20428;-67
2023/08/07 06:55:15;;;;;;;7.03;2.22;;;;;;;13.74;100.00;101383.75;5320534;27;20030;-67
2023/08/07 06:57:47;;;;;;;9.50;1.70;;;;;;;13.76;100.00;101387.16;5313090;28;20050;-67
2023/08/07 07:00:18;;;;;;;10.95;2.15;;;;;;;13.84;100.00;101392.72;5319062;28;20026;-67
2023/08/07 07:02:50;;;;;;;10.65;2.47;;;;;;;13.96;100.00;101392.72;5317252;28;20508;-68
2023/08/07 07:05:21;;;;;;;8.18;2.15;;;;;;;14.05;100.00;101395.47;5316536;28;20106;-67
2023/08/07 07:07:54;;;;;;;9.32;2.30;;;;;;;14.04;100.00;101401.84;5315197;28;20492;-67
2023/08/07 07:10:25;;;;;;;10.60;2.20;;;;;;;14.04;100.00;101401.00;5322747;27;20512;-67
2023/08/07 07:12:56;;;;;;;9.35;2.13;;;;;;;14.08;100.00;101400.63;5317765;28;20020;-68
2023/08/07 07:15:28;;;;;;;12.70;2.50;;;;;;;14.16;100.00;101399.13;5314287;28;20027;-67
2023/08/07 07:17:59;;;;;;;11.43;2.20;;;;;;;14.25;100.00;101407.28;5303928;28;20555;-67
2023/08/07 07:20:31;;;;;;;6.65;2.45;;;;;;;14.35;100.00;101414.56;5317772;28;20043;-67
2023/08/07 07:23:02;;;;;;;7.43;2.25;;;;;;;14.42;100.00;101418.41;5317801;28;20047;-67
2023/08/07 07:25:33;;;;;;;8.77;2.10;;;;;;;14.49;100.00;101419.63;5313083;28;20050;-67
2023/08/07 07:28:05;;;;;;;10.30;2.10;;;;;;;14.49;100.00;101427.66;5311786;28;20031;-67
2023/08/07 07:30:39;;;;;;;11.27;2.30;;;;;;;14.50;100.00;101427.53;5309592;28;20508;-67
2023/08/07 07:33:10;;;;;;;6.80;1.80;;;;;;;14.51;100.00;101426.53;5327145;28;20381;-67
2023/08/07 07:35:42;;;;;;;11.00;2.20;;;;;;;14.55;100.00;101424.47;5319673;28;20031;-67
2023/08/07 07:38:15;;;;;;;9.75;2.00;;;;;;;14.65;100.00;101425.44;5316995;28;20023;-67
2023/08/07 07:40:46;;;;;;;9.45;1.85;;;;;;;14.69;100.00;101426.88;5314202;28;20116;-68
2023/08/07 07:43:17;;;;;;;10.30;2.03;;;;;;;14.77;100.00;101430.75;5316287;28;20158;-67
2023/08/07 07:45:49;;;;;;;10.05;2.25;;;;;;;14.85;100.00;101431.78;5317065;28;20028;-67
2023/08/07 07:48:20;;;;;;;7.75;1.80;;;;;;;14.95;100.00;101431.84;5315056;28;20549;-67
2023/08/07 07:50:58;;;;;;;9.65;1.98;;;;;;;14.93;100.00;101432.97;5314409;28;20070;-68
2023/08/07 07:53:30;;;;;;;6.43;1.67;;;;;;;14.93;100.00;101439.19;5318740;28;20352;-68
2023/08/07 07:56:02;;;;;;;9.07;2.25;;;;;;;14.90;100.00;101431.41;5318333;28;20024;-68
2023/08/07 07:58:33;;;;;;;9.13;2.15;;;;;;;14.88;100.00;101436.91;5317906;28;20451;-67
2023/08/07 08:01:05;;;;;;;8.63;2.03;;;;;;;14.99;100.00;101449.41;5316000;28;20456;-67
2023/08/07 08:03:36;;;;;;;7.55;2.67;;;;;;;15.00;100.00;101442.22;5321138;28;20031;-67
2023/08/07 08:06:07;;;;;;;8.75;1.90;;;;;;;15.06;100.00;101452.44;5314485;28;20465;-67
2023/08/07 08:08:39;;;;;;;9.32;2.00;;;;;;;15.13;100.00;101452.75;5315807;28;20036;-68
2023/08/07 08:11:10;;;;;;;8.48;1.90;;;;;;;15.14;100.00;101449.94;5319346;28;20129;-68
2023/08/07 08:13:42;;;;;;;8.88;2.10;;;;;;;15.16;100.00;101460.56;5316846;28;20031;-67
2023/08/07 08:16:15;;;;;;;8.93;2.05;;;;;;;15.15;100.00;101448.97;5320741;27;20164;-68
2023/08/07 08:18:46;;;;;;;9.23;2.20;;;;;;;15.19;100.00;101460.31;5316838;27;20098;-67
2023/08/07 08:21:18;;;;;;;10.88;2.20;;;;;;;15.27;100.00;101457.81;5318554;28;20145;-68
2023/08/07 08:23:49;;;;;;;9.00;2.10;;;;;;;15.42;100.00;101456.47;5309285;28;20394;-68
2023/08/07 08:26:21;;;;;;;10.63;2.08;;;;;;;15.51;100.00;101454.78;5321396;28;20030;-67
2023/08/07 08:28:52;;;;;;;6.28;1.60;;;;;;;15.63;100.00;101459.13;5311399;27;20032;-67
2023/08/07 08:31:24;;;;;;;6.15;1.67;;;;;;;15.71;100.00;101454.91;5321119;27;20058;-68
2023/08/07 08:33:55;;;;;;;8.60;1.75;;;;;;;15.75;100.00;101448.28;5317503;28;20031;-68
2023/08/07 08:36:26;;;;;;;6.90;1.48;;;;;;;15.77;100.00;101447.16;5321048;28;20020;-67
2023/08/07 08:38:58;;;;;;;7.90;2.00;;;;;;;15.77;100.00;101449.00;5307629;28;20027;-67
2023/08/07 08:41:30;;;;;;;5.55;1.52;;;;;;;15.72;100.00;101452.06;5320237;27;20549;-68
2023/08/07 08:44:05;;;;;;;7.35;1.80;;;;;;;15.79;100.00;101453.25;5321577;28;20011;-68
2023/08/07 08:46:38;;;;;;;7.00;1.50;;;;;;;15.94;100.00;101452.88;5320178;28;20070;-68
2023/08/07 08:49:10;;;;;;;8.50;1.90;;;;;;;16.00;100.00;101460.41;5321379;28;20024;-67
2023/08/07 08:51:43;;;;;;;6.55;1.50;;;;;;;16.06;100.00;101465.22;5319973;28;20027;-68
2023/08/07 08:54:14;;;;;;;6.60;1.50;;;;;;;16.00;100.00;101466.63;5322514;28;20023;-68
2023/08/07 08:56:46;;;;;;;5.22;1.52;;;;;;;15.91;100.00;101472.81;5316938;28;20030;-68
2023/08/07 08:59:18;;;;;;;6.80;1.67;;;;;;;15.86;100.00;101481.31;5310755;28;20024;-68
2023/08/07 09:01:52;;;;;;;7.13;1.60;;;;;;;15.88;100.00;101473.13;5318692;28;20070;-68
2023/08/07 09:04:23;;;;;;;7.57;1.90;;;;;;;15.99;100.00;101477.53;5307365;28;20482;-68
2023/08/07 09:06:55;;;;;;;6.80;1.85;;;;;;;16.06;100.00;101470.59;5317182;28;20346;-68
2023/08/07 09:09:27;;;;;;;6.95;1.77;;;;;;;16.27;100.00;101484.81;5287902;28;20402;-68
2023/08/07 09:11:59;;;;;;;8.70;1.83;;;;;;;16.38;100.00;101477.63;5313362;28;20074;-68
2023/08/07 09:14:36;;;;;;;6.88;1.48;;;;;;;16.59;100.00;101480.19;5320318;28;20409;-68
2023/08/07 09:17:09;;;;;;;7.28;1.70;;;;;;;16.59;100.00;101474.81;5319483;28;20027;-68
2023/08/07 09:19:40;;;;;;;7.07;1.52;;;;;;;16.59;100.00;101489.13;5311808;28;20039;-67
2023/08/07 09:22:11;;;;;;;8.18;1.58;;;;;;;16.50;100.00;101483.72;5303262;28;20607;-68
2023/08/07 09:24:43;;;;;;;5.70;1.40;;;;;;;16.45;100.00;101493.09;5318987;28;20059;-68
2023/08/07 09:27:14;;;;;;;8.20;2.20;;;;;;;16.55;100.00;101487.72;5314920;28;20169;-67
2023/08/07 09:29:46;;;;;;;6.07;2.00;;;;;;;16.58;100.00;101487.41;5320255;28;20031;-69
2023/08/07 09:32:18;;;;;;;5.10;1.25;;;;;;;16.70;100.00;101484.56;5309640;28;20032;-68
2023/08/07 09:34:51;;;;;;;5.15;1.60;;;;;;;16.77;100.00;101496.50;5316086;28;20038;-68
2023/08/07 09:37:23;;;;;;;7.05;1.50;;;;;;;16.78;100.00;101492.78;5316042;28;20089;-68
2023/08/07 09:39:55;;;;;;;5.50;1.85;;;;;;;16.76;100.00;101484.88;5317520;28;20024;-68
2023/08/07 09:42:32;;;;;;;4.95;1.30;;;;;;;16.77;100.00;101485.72;5314636;28;20107;-68
2023/08/07 09:45:22;;;;;;;7.25;1.30;;;;;;;16.77;100.00;101477.63;5319732;27;20123;-68
2023/08/07 09:48:06;;;;;;;5.75;1.52;;;;;;;16.76;100.00;101492.97;5318717;28;20053;-68
2023/08/07 09:50:37;;;;;;;4.75;1.38;;;;;;;16.74;100.00;101494.06;5320770;28;20131;-67
2023/08/07 09:53:10;;;;;;;6.97;1.50;;;;;;;16.89;100.00;101499.94;5316522;28;20123;-68
2023/08/07 09:55:42;;;;;;;6.50;1.70;;;;;;;16.97;100.00;101513.53;5319114;28;20035;-68
2023/08/07 09:58:13;;;;;;;4.88;1.73;;;;;;;17.13;100.00;101507.59;5317832;28;20019;-68
2023/08/07 10:00:46;;;;;;;5.95;1.35;;;;;;;17.28;100.00;101503.44;5318248;28;20023;-68
2023/08/07 10:03:17;;;;;;;6.60;1.83;;;;;;;17.41;100.00;101508.50;5318515;28;20469;-67
2023/08/07 10:05:50;;;;;;;5.63;1.40;;;;;;;17.52;100.00;101508.31;5317502;28;20034;-68
2023/08/07 10:08:22;;;;;;;8.40;1.40;;;;;;;17.69;100.00;101511.28;5316871;28;20034;-68
2023/08/07 10:10:54;;;;;;;5.63;1.50;;;;;;;17.55;100.00;101523.41;5316706;28;20031;-68
2023/08/07 10:13:26;;;;;;;7.03;1.42;;;;;;;17.42;100.00;101521.84;5310240;28;20032;-68
2023/08/07 10:15:58;;;;;;;6.30;1.50;;;;;;;17.49;100.00;101524.81;5316421;28;20023;-68
2023/08/07 10:18:30;;;;;;;5.57;1.70;;;;;;;17.41;100.00;101525.56;5299359;28;20153;-68
2023/08/07 10:21:04;;;;;;;4.93;1.35;;;;;;;17.41;100.00;101513.88;5317156;27;20118;-68
2023/08/07 10:23:38;;;;;;;5.25;1.10;;;;;;;17.41;100.00;101522.84;5310578;27;20397;-68
2023/08/07 10:26:12;;;;;;;6.75;1.40;;;;;;;17.58;100.00;101507.72;5319011;28;20020;-68
2023/08/07 10:28:44;;;;;;;6.18;1.60;;;;;;;17.75;100.00;101522.31;5317568;28;20032;-67
2023/08/07 10:31:16;;;;;;;5.75;1.40;;;;;;;17.95;100.00;101519.56;5320471;27;20480;-68
2023/08/07 10:33:48;;;;;;;4.93;1.60;;;;;;;18.01;100.00;101529.78;5317369;28;20706;-67
2023/08/07 10:36:19;;;;;;;5.95;1.45;;;;;;;17.99;100.00;101521.00;5318145;28;20382;-68
2023/08/07 10:39:07;;;;;;;5.38;1.50;;;;;;;17.90;100.00;101528.13;5316566;28;20037;-68
2023/08/07 10:41:52;;;;;;;6.20;1.23;;;;;;;17.87;100.00;101530.25;5315624;28;20034;-69
2023/08/07 10:44:33;;;;;;;4.15;1.63;;;;;;;17.67;100.00;101537.56;5317542;28;20554;-68
2023/08/07 10:47:05;;;;;;;4.40;1.35;;;;;;;17.64;100.00;101539.56;5319031;28;20030;-68
2023/08/07 10:49:38;;;;;;;6.13;1.25;;;;;;;17.86;100.00;101532.13;5318975;28;20065;-68
2023/08/07 10:52:10;;;;;;;3.85;1.50;;;;;;;18.03;100.00;101538.59;5305817;28;20016;-68
2023/08/07 10:54:46;;;;;;;5.75;1.58;;;;;;;18.14;100.00;101551.03;5304932;28;20551;-68
2023/08/07 10:57:18;;;;;;;3.63;1.30;;;;;;;18.17;100.00;101540.78;5316990;28;20426;-69
2023/08/07 10:59:51;;;;;;;5.38;1.73;;;;;;;18.20;100.00;101567.50;5317584;28;20027;-68
2023/08/07 11:02:30;;;;;;;3.67;1.30;;;;;;;18.17;100.00;101532.66;5319246;28;20028;-68
2023/08/07 11:05:03;;;;;;;4.28;1.20;;;;;;;18.12;100.00;101545.78;5314914;28;20419;-68
2023/08/07 11:07:40;;;;;;;4.22;1.25;;;;;;;18.11;100.00;101546.78;5306108;28;20030;-68
2023/08/07 11:10:15;;;;;;;4.95;1.20;;;;;;;18.10;100.00;101538.81;5310442;28;20505;-68
2023/08/07 11:12:48;;;;;;;5.68;1.60;;;;;;;18.09;100.00;101543.38;5308599;28;20583;-68
2023/08/07 11:15:19;;;;;;;3.25;1.20;;;;;;;18.08;100.00;101544.38;5318987;28;20423;-68
2023/08/07 11:17:52;;;;;;;6.85;1.50;;;;;;;18.10;100.00;101534.28;5294447;28;20032;-68
2023/08/07 11:20:25;;;;;;;6.20;1.75;;;;;;;18.05;100.00;101550.09;5312684;28;20036;-68
2023/08/07 11:22:59;;;;;;;6.38;2.03;;;;;;;18.08;100.00;101547.06;5314536;27;20027;-68
2023/08/07 11:25:30;;;;;;;5.15;1.50;;;;;;;18.10;100.00;101547.81;5317792;28;20032;-68
2023/08/07 11:28:01;;;;;;;6.30;1.60;;;;;;;18.21;100.00;101536.75;5315913;28;20504;-68
2023/08/07 11:30:34;;;;;;;6.25;1.70;;;;;;;18.30;100.00;101539.59;5317396;28;20040;-68
2023/08/07 11:33:05;;;;;;;6.65;1.80;;;;;;;18.38;100.00;101536.97;5321892;28;20055;-68
2023/08/07 11:35:41;;;;;;;4.10;1.70;;;;;;;18.50;100.00;101548.41;5331984;27;20046;-68
2023/08/07 11:38:13;;;;;;;7.05;1.60;;;;;;;18.63;100.00;101546.19;5321718;27;20059;-68